Hauptseite
METAR-TAF:

METAR-TAF

Flughäfen :

Christchurch International Airport

Christchurch, Neuseeland

Breite: 43-29S, Länge: 172-33E, Höhe: 38 m

Beobachtung

Neuester Wetterbericht von vor 33 Minuten, um 08:00 UTC
Windstille
Temperatur 0°C
Luftfeuchtigkeit 93%
Luftdruck 1021 hPa
Sichtweite 10 km oder mehr

METAR: NZCH 210800Z AUTO 00000KT 9999 NCD 00/M01 Q1021 NOSIG

Zeit: 20:33 (08:33 UTC)

Prognose

Neuester Wetterbericht von vor 3 Stunden und 32 Minuten, um 05:01 UTC
Gültige Prognose vom 21 um 06 UTC bis 22 um 06 UTC
Wind 5 kt aus Südwest
Sichtweite 10 km oder mehr
Leicht bewölkt in der Höhe von 2000 ft
Aufgelockert bewölkt in der Höhe von 4000 ft
Wahrscheinlichkeit 40%
vom 21 um 13 UTC bis 21 um 21 UTC
Sichtweite: 0400 m
Durchbrochene Bewölkung in der Höhe von 400 ft
Nebel

TAF: NZCH 210501Z 2106/2206 23005KT 9999 FEW020 SCT040 PROB40 2113/2121 0400 FG BKN004

Wetterbeobachtungen und Prognosen von mehr als 4000 Flughäfen (METAR und TAF Bericht).

Die verfügbaren Stationen werden durch gelbe und rote Markierungen auf der Karte dargestellt.

Führen Sie die Maus auf sie, um den Namen der Station zu sehen.

Darauf klicken, um die Beobachtung von Wetterbeobachtungen und Prognosen zu sehen.

Um die Karte zu ändern : klicken Sie auf den grünen Tasten mit einem schwarzen Kreuz Zum Vergrößern, auf den grünen Button mit einem Gedankenstrich zu verkleinern, oder auf die grünen Pfeile für benachbarte Karten.


METAR-TAF: